Time;durP1;ratioP1;P1;durP2;ratioP2;P2;SDS_P1;SDS_P2;PMS_P1;PMS_P2;Temp;Humidity;BMP_temperature;BMP_pressure;BME280_temperature;BME280_humidity;BME280_pressure;Samples;Min_cycle;Max_cycle;Signal;HPM_P1;HPM_P2
2022/05/11 00:00:13;;;;;;;14.02;7.93;;;13.80;99.90;;;;;;5029988;28;20041;-72
2022/05/11 00:02:41;;;;;;;13.40;9.40;;;13.80;99.90;;;;;;5030868;28;20060;-72
2022/05/11 00:05:10;;;;;;;18.73;9.88;;;13.90;99.90;;;;;;5025983;28;20052;-72
2022/05/11 00:07:35;;;;;;;20.33;8.60;;;13.90;99.90;;;;;;5015703;28;20512;-72
2022/05/11 00:10:03;;;;;;;10.90;7.95;;;13.90;99.90;;;;;;5042868;28;20049;-71
2022/05/11 00:12:29;;;;;;;10.30;8.40;;;13.80;99.90;;;;;;5030245;28;20124;-72
2022/05/11 00:14:54;;;;;;;15.07;9.32;;;13.90;99.90;;;;;;5042074;28;20145;-71
2022/05/11 00:17:20;;;;;;;15.80;8.70;;;13.90;99.90;;;;;;5023948;28;20405;-72
2022/05/11 00:19:46;;;;;;;12.23;9.32;;;13.90;99.90;;;;;;5048427;28;20045;-72
2022/05/11 00:22:11;;;;;;;12.70;8.23;;;13.90;99.90;;;;;;5025646;28;20045;-72
2022/05/11 00:24:37;;;;;;;17.08;8.52;;;13.90;99.90;;;;;;5031097;28;20041;-72
2022/05/11 00:27:03;;;;;;;16.45;8.00;;;13.90;99.90;;;;;;5038306;28;20048;-72
2022/05/11 00:29:30;;;;;;;13.70;8.70;;;13.90;99.90;;;;;;5048056;28;20540;-71
2022/05/11 00:31:56;;;;;;;20.43;9.07;;;13.90;99.90;;;;;;5046866;28;20057;-72
2022/05/11 00:34:22;;;;;;;20.23;8.85;;;13.90;99.90;;;;;;4993087;28;1595805;-72
2022/05/11 00:36:48;;;;;;;13.20;7.95;;;13.90;99.90;;;;;;5029019;28;20051;-72
2022/05/11 00:39:13;;;;;;;12.02;7.97;;;13.90;99.90;;;;;;5031709;28;20052;-72
2022/05/11 00:41:41;;;;;;;21.85;8.18;;;13.80;99.90;;;;;;5047446;28;20040;-72
2022/05/11 00:44:09;;;;;;;26.98;9.63;;;13.90;99.90;;;;;;5023477;28;20045;-72
2022/05/11 00:46:35;;;;;;;;;;;13.90;99.90;;;;;;5049772;28;20056;-72
2022/05/11 00:52:00;;;;;;;11.25;8.32;;;13.80;99.90;;;;;;5020133;28;20053;-71
2022/05/11 00:54:27;;;;;;;15.52;9.00;;;13.80;99.90;;;;;;5048941;28;20548;-72
2022/05/11 00:57:00;;;;;;;10.15;7.72;;;13.80;99.90;;;;;;5031324;28;20048;-72
2022/05/11 00:59:31;;;;;;;10.10;7.38;;;13.80;99.90;;;;;;5049455;28;20053;-71
2022/05/11 01:02:04;;;;;;;22.63;8.25;;;13.80;99.90;;;;;;5048625;28;20041;-72
2022/05/11 01:04:37;;;;;;;13.68;7.82;;;13.80;99.90;;;;;;5049166;28;20128;-71
2022/05/11 01:07:04;;;;;;;11.05;7.93;;;13.80;99.90;;;;;;5029315;28;20102;-71
2022/05/11 01:09:30;;;;;;;12.90;8.23;;;13.80;99.90;;;;;;5030958;28;20123;-72
2022/05/11 01:11:58;;;;;;;15.77;9.75;;;13.80;99.90;;;;;;5048031;28;20157;-71
2022/05/11 01:14:29;;;;;;;29.33;8.75;;;13.80;99.90;;;;;;5030704;28;20124;-71
2022/05/11 01:16:56;;;;;;;15.25;7.93;;;13.80;99.90;;;;;;5044320;28;20044;-72
2022/05/11 01:19:31;;;;;;;18.77;9.48;;;13.80;99.90;;;;;;5030604;28;20049;-72
2022/05/11 01:22:03;;;;;;;15.73;9.95;;;13.80;99.90;;;;;;5030692;28;20049;-71
2022/05/11 01:24:39;;;;;;;13.07;8.23;;;13.80;99.90;;;;;;5044719;28;20100;-71
2022/05/11 01:27:40;;;;;;;11.52;8.95;;;13.80;99.90;;;;;;5029859;28;20505;-71
2022/05/11 01:30:18;;;;;;;13.88;9.38;;;13.80;99.90;;;;;;5029877;28;20080;-71
2022/05/11 01:32:47;;;;;;;17.17;9.32;;;13.80;99.90;;;;;;5029890;28;20473;-72
2022/05/11 01:35:37;;;;;;;10.80;8.63;;;13.80;99.90;;;;;;5031166;28;20061;-72
2022/05/11 01:38:25;;;;;;;13.88;7.90;;;13.80;99.90;;;;;;5047089;28;20122;-72
2022/05/11 01:40:54;;;;;;;12.07;8.38;;;13.80;99.90;;;;;;5038178;28;20049;-71
2022/05/11 01:43:23;;;;;;;16.10;9.57;;;13.80;99.90;;;;;;5035273;28;20040;-72
2022/05/11 01:45:49;;;;;;;14.90;9.75;;;13.80;99.90;;;;;;5047392;28;21107;-71
2022/05/11 01:48:15;;;;;;;17.55;8.40;;;13.70;99.90;;;;;;5029948;28;20045;-71
2022/05/11 01:50:41;;;;;;;14.73;8.82;;;13.80;99.90;;;;;;5047866;28;20047;-71
2022/05/11 01:53:07;;;;;;;14.27;9.27;;;13.80;99.90;;;;;;5048311;28;20045;-71
2022/05/11 01:55:33;;;;;;;13.32;9.10;;;13.80;99.90;;;;;;5027405;28;20049;-71
2022/05/11 01:58:02;;;;;;;15.38;8.13;;;13.80;99.90;;;;;;5027702;28;20049;-71
2022/05/11 02:00:28;;;;;;;12.23;8.90;;;13.80;99.90;;;;;;5045774;28;20056;-72
2022/05/11 02:02:53;;;;;;;11.40;8.57;;;13.70;99.90;;;;;;5048389;28;20041;-72
2022/05/11 02:08:04;;;;;;;25.85;9.20;;;13.70;99.90;;;;;;5047185;28;20497;-72
2022/05/11 02:10:30;;;;;;;11.77;8.55;;;13.70;99.90;;;;;;5048179;28;20033;-71
2022/05/11 02:12:57;;;;;;;14.88;8.77;;;13.80;99.90;;;;;;5045169;28;20658;-72
2022/05/11 02:15:25;;;;;;;17.40;9.00;;;13.80;99.90;;;;;;5044091;28;20101;-72
2022/05/11 02:17:51;;;;;;;12.27;8.88;;;13.80;99.90;;;;;;5012494;28;20044;-72
2022/05/11 02:20:18;;;;;;;13.20;7.95;;;13.80;99.90;;;;;;5029861;28;20037;-71
2022/05/11 02:22:44;;;;;;;16.20;9.30;;;13.80;99.90;;;;;;5029089;28;20107;-72
2022/05/11 02:25:13;;;;;;;13.18;9.35;;;13.70;99.90;;;;;;5047189;28;20321;-72
2022/05/11 02:27:39;;;;;;;15.52;9.88;;;13.80;99.90;;;;;;5044215;28;20059;-72
2022/05/11 02:30:07;;;;;;;13.32;9.45;;;13.80;99.90;;;;;;5021624;28;20531;-72
2022/05/11 02:32:33;;;;;;;16.98;10.35;;;13.80;99.90;;;;;;5046709;28;20071;-72
2022/05/11 02:35:16;;;;;;;11.90;9.35;;;13.80;99.90;;;;;;5047106;28;20057;-72
2022/05/11 02:37:55;;;;;;;14.40;9.98;;;13.70;99.90;;;;;;5025698;28;20811;-72
2022/05/11 02:40:26;;;;;;;10.07;8.90;;;13.80;99.90;;;;;;5032760;28;20508;-72
2022/05/11 02:42:52;;;;;;;15.95;9.98;;;13.80;99.90;;;;;;5049872;28;20045;-72
2022/05/11 02:45:19;;;;;;;13.25;9.23;;;13.80;99.90;;;;;;5040836;28;20037;-72
2022/05/11 02:47:46;;;;;;;14.95;9.65;;;13.80;99.90;;;;;;5028972;28;20056;-72
2022/05/11 02:50:15;;;;;;;12.43;9.20;;;13.80;99.90;;;;;;5029175;28;20045;-72
2022/05/11 02:52:40;;;;;;;14.55;10.57;;;13.80;99.90;;;;;;5047514;28;20095;-71
2022/05/11 02:55:07;;;;;;;13.57;8.80;;;13.80;99.90;;;;;;5046331;28;20440;-71
2022/05/11 02:57:32;;;;;;;18.27;9.40;;;13.80;99.90;;;;;;5047038;28;20049;-72
2022/05/11 02:59:59;;;;;;;11.43;8.90;;;13.80;99.90;;;;;;5047127;28;20048;-71
2022/05/11 03:02:25;;;;;;;13.30;10.13;;;13.80;99.90;;;;;;5046846;28;20053;-72
2022/05/11 03:04:51;;;;;;;17.58;10.77;;;13.80;99.90;;;;;;5030357;28;20383;-72
2022/05/11 03:07:18;;;;;;;15.07;9.27;;;13.80;99.90;;;;;;5030053;28;20052;-72
2022/05/11 03:09:44;;;;;;;13.27;9.35;;;13.80;99.90;;;;;;5047360;28;20057;-72
2022/05/11 03:12:11;;;;;;;15.25;9.82;;;13.80;99.90;;;;;;5028730;28;20055;-72
2022/05/11 03:14:38;;;;;;;13.37;9.43;;;13.80;99.90;;;;;;5029841;28;20486;-72
2022/05/11 03:17:04;;;;;;;15.10;9.25;;;13.80;99.90;;;;;;5028914;28;20056;-72
2022/05/11 03:19:30;;;;;;;14.07;10.10;;;13.80;99.90;;;;;;5046855;28;20041;-72
2022/05/11 03:21:57;;;;;;;16.95;8.45;;;13.80;99.90;;;;;;5047483;28;20044;-72
2022/05/11 03:24:23;;;;;;;19.10;10.10;;;13.80;99.90;;;;;;5029562;28;20426;-72
2022/05/11 03:26:49;;;;;;;14.57;9.00;;;13.80;99.90;;;;;;5019654;28;20053;-71
2022/05/11 03:29:15;;;;;;;15.20;8.90;;;13.80;99.90;;;;;;5026209;28;20049;-72
2022/05/11 03:34:36;;;;;;;10.25;8.95;;;13.80;99.90;;;;;;5008784;28;20052;-71
2022/05/11 03:34:36;;;;;;;15.00;8.70;;;13.80;99.90;;;;;;5023717;28;20057;-71
2022/05/11 03:37:02;;;;;;;13.57;9.18;;;13.80;99.90;;;;;;5043355;28;20049;-71
2022/05/11 03:39:27;;;;;;;21.95;8.95;;;13.80;99.90;;;;;;5020540;28;20053;-71
2022/05/11 03:41:53;;;;;;;15.18;8.15;;;13.80;99.90;;;;;;5052317;28;20083;-71
2022/05/11 03:44:19;;;;;;;16.55;9.57;;;13.80;99.90;;;;;;5030695;28;20048;-72
2022/05/11 03:46:45;;;;;;;11.23;8.85;;;13.80;99.90;;;;;;5047696;28;20095;-71
2022/05/11 03:49:11;;;;;;;26.67;9.20;;;13.80;99.90;;;;;;5046939;28;20041;-72
2022/05/11 03:51:36;;;;;;;13.27;8.68;;;13.80;99.90;;;;;;5033539;28;20052;-72
2022/05/11 03:54:02;;;;;;;22.33;8.95;;;13.80;99.90;;;;;;5033974;28;20509;-72
2022/05/11 03:56:28;;;;;;;21.40;9.65;;;13.80;99.90;;;;;;5050568;28;20037;-72
2022/05/11 03:58:56;;;;;;;18.17;8.85;;;13.80;99.90;;;;;;5051442;28;20139;-71
2022/05/11 04:01:21;;;;;;;12.70;7.80;;;13.80;99.90;;;;;;5033859;28;20198;-72
2022/05/11 04:03:47;;;;;;;16.33;9.60;;;13.80;99.90;;;;;;5051684;28;20510;-72
2022/05/11 04:06:13;;;;;;;11.73;8.15;;;13.80;99.90;;;;;;5032434;28;20146;-72
2022/05/11 04:08:39;;;;;;;11.77;8.77;;;13.80;99.90;;;;;;5032353;28;20221;-72
2022/05/11 04:11:05;;;;;;;10.68;8.43;;;13.80;99.90;;;;;;5044354;28;20041;-73
2022/05/11 04:13:30;;;;;;;14.95;10.23;;;13.80;99.90;;;;;;5032441;28;20044;-72
2022/05/11 04:15:56;;;;;;;12.15;8.77;;;13.80;99.90;;;;;;5049312;28;20041;-72
2022/05/11 04:18:22;;;;;;;18.40;9.23;;;13.80;99.90;;;;;;5049069;28;20037;-72
2022/05/11 04:20:48;;;;;;;14.55;9.82;;;13.80;99.90;;;;;;5050425;28;20136;-72
2022/05/11 04:23:14;;;;;;;15.25;9.32;;;13.80;99.90;;;;;;5031196;28;20048;-72
2022/05/11 04:25:39;;;;;;;17.45;10.52;;;13.80;99.90;;;;;;5048703;28;20041;-72
2022/05/11 04:28:12;;;;;;;15.80;9.55;;;13.80;99.90;;;;;;5031879;28;20055;-72
2022/05/11 04:30:39;;;;;;;13.18;8.68;;;13.80;99.90;;;;;;5027697;28;20049;-72
2022/05/11 04:33:06;;;;;;;15.45;9.30;;;13.80;99.90;;;;;;5036230;28;20060;-72
2022/05/11 04:35:32;;;;;;;16.83;9.75;;;13.80;99.90;;;;;;5018121;28;20057;-72
2022/05/11 04:37:59;;;;;;;16.80;8.77;;;13.80;99.90;;;;;;5030860;28;20052;-72
2022/05/11 04:40:26;;;;;;;11.60;8.52;;;13.80;99.90;;;;;;5035869;28;20075;-72
2022/05/11 04:42:52;;;;;;;18.60;9.93;;;13.90;99.90;;;;;;5047742;28;20076;-72
2022/05/11 04:45:18;;;;;;;13.40;9.90;;;13.90;99.90;;;;;;5048249;28;20107;-72
2022/05/11 04:47:44;;;;;;;18.75;9.45;;;13.90;99.90;;;;;;5027784;28;20048;-72
2022/05/11 04:50:11;;;;;;;13.48;8.73;;;13.90;99.90;;;;;;5026105;28;20057;-72
2022/05/11 04:52:37;;;;;;;16.83;8.90;;;13.80;99.90;;;;;;5047691;28;20037;-71
2022/05/11 04:55:04;;;;;;;11.43;8.80;;;13.90;99.90;;;;;;5049267;28;20052;-72
2022/05/11 04:57:30;;;;;;;16.92;8.70;;;13.90;99.90;;;;;;5031107;28;20072;-71
2022/05/11 04:59:56;;;;;;;13.65;8.45;;;13.90;99.90;;;;;;5031062;28;20076;-71
2022/05/11 05:02:24;;;;;;;17.02;10.00;;;13.90;99.90;;;;;;5048085;28;20059;-71
2022/05/11 05:04:51;;;;;;;11.75;8.63;;;13.90;99.90;;;;;;5026382;28;20506;-71
2022/05/11 05:07:17;;;;;;;15.38;9.63;;;13.90;99.90;;;;;;5022815;28;20195;-72
2022/05/11 05:09:43;;;;;;;19.45;9.07;;;13.90;99.90;;;;;;5044580;28;20124;-72
2022/05/11 05:12:11;;;;;;;19.80;10.82;;;13.90;99.90;;;;;;5048818;28;20137;-72
2022/05/11 05:14:38;;;;;;;19.10;10.30;;;13.90;99.90;;;;;;5049026;28;20048;-69
2022/05/11 05:17:06;;;;;;;16.80;10.13;;;13.90;99.90;;;;;;5049658;28;20119;-71
2022/05/11 05:19:32;;;;;;;;;;;13.90;99.90;;;;;;5050582;28;20051;-72
2022/05/11 05:22:02;;;;;;;17.15;9.07;;;13.90;99.90;;;;;;5049266;28;19951;-71
2022/05/11 05:24:34;;;;;;;15.65;9.52;;;13.90;99.90;;;;;;5030663;28;20387;-73
2022/05/11 05:27:13;;;;;;;15.32;8.80;;;14.00;99.90;;;;;;5034078;28;20063;-73
2022/05/11 05:32:23;;;;;;;15.55;8.55;;;14.00;99.90;;;;;;5031661;28;20587;-74
2022/05/11 05:34:49;;;;;;;16.65;10.38;;;14.00;99.90;;;;;;5030671;28;20117;-72
2022/05/11 05:37:16;;;;;;;18.42;10.38;;;14.10;99.90;;;;;;5048452;28;20094;-73
2022/05/11 05:39:43;;;;;;;27.10;11.03;;;14.10;99.90;;;;;;5048998;28;20052;-72
2022/05/11 05:42:15;;;;;;;22.98;12.52;;;14.10;99.90;;;;;;5034161;28;20060;-72
2022/05/11 05:44:41;;;;;;;23.60;12.65;;;14.20;99.90;;;;;;5030970;28;20045;-73
2022/05/11 05:47:08;;;;;;;20.75;12.50;;;14.20;99.90;;;;;;5030593;28;20051;-73
2022/05/11 05:49:34;;;;;;;21.27;12.50;;;14.30;99.90;;;;;;5030056;28;20102;-72
2022/05/11 05:52:01;;;;;;;19.63;11.45;;;14.30;99.90;;;;;;5030802;28;20151;-72
2022/05/11 05:54:33;;;;;;;19.65;11.25;;;14.40;99.90;;;;;;5030975;28;20084;-72
2022/05/11 05:56:59;;;;;;;21.35;12.48;;;14.40;99.90;;;;;;5030384;28;20110;-72
2022/05/11 05:59:25;;;;;;;25.00;13.18;;;14.40;99.90;;;;;;5026899;28;20042;-72
2022/05/11 06:01:51;;;;;;;16.25;10.73;;;14.50;99.90;;;;;;5027091;28;20045;-73
2022/05/11 06:04:17;;;;;;;24.85;14.43;;;14.50;99.90;;;;;;5041554;28;20095;-72
2022/05/11 06:06:42;;;;;;;35.85;14.05;;;14.50;99.90;;;;;;5030010;28;20098;-73
2022/05/11 06:09:09;;;;;;;25.25;14.65;;;14.50;99.90;;;;;;5025341;28;20353;-72
2022/05/11 06:11:37;;;;;;;29.00;14.32;;;14.60;99.90;;;;;;5040292;28;20116;-72
2022/05/11 06:14:03;;;;;;;21.50;14.98;;;14.60;99.90;;;;;;5040554;28;20055;-73
2022/05/11 06:16:29;;;;;;;25.63;14.05;;;14.70;99.90;;;;;;5030116;28;20156;-73
2022/05/11 06:18:55;;;;;;;25.17;14.60;;;14.60;99.90;;;;;;5027301;28;20084;-73
2022/05/11 06:21:21;;;;;;;23.95;14.13;;;14.70;99.90;;;;;;5046631;28;20045;-73
2022/05/11 06:23:47;;;;;;;23.30;14.52;;;14.80;99.90;;;;;;5029163;28;20041;-72
2022/05/11 06:26:13;;;;;;;19.45;14.10;;;14.80;99.90;;;;;;5029034;28;20505;-73
2022/05/11 06:28:40;;;;;;;23.30;13.77;;;14.80;99.90;;;;;;5017161;28;20049;-76
2022/05/11 06:31:08;;;;;;;20.60;14.10;;;14.90;99.90;;;;;;5030621;28;20402;-76
2022/05/11 06:33:33;;;;;;;20.92;13.77;;;14.90;99.90;;;;;;5031840;28;20060;-76
2022/05/11 06:36:00;;;;;;;25.88;12.43;;;15.00;99.90;;;;;;5031054;28;20064;-76
2022/05/11 06:38:26;;;;;;;20.30;10.93;;;15.00;99.90;;;;;;5031036;28;20041;-76
2022/05/11 06:40:52;;;;;;;17.90;10.57;;;15.10;99.90;;;;;;5050473;28;20127;-76
2022/05/11 06:43:18;;;;;;;17.02;11.07;;;15.10;99.90;;;;;;5024556;28;20041;-76
2022/05/11 06:45:44;;;;;;;17.98;10.00;;;15.20;99.90;;;;;;5014698;28;20081;-77
2022/05/11 06:48:14;;;;;;;23.27;9.57;;;15.30;99.90;;;;;;5013426;28;20052;-76
2022/05/11 06:50:41;;;;;;;18.42;9.05;;;15.30;99.90;;;;;;5013837;28;20133;-76
2022/05/11 06:53:10;;;;;;;20.75;9.00;;;15.40;99.90;;;;;;5019936;28;20123;-76
2022/05/11 07:01:14;;;;;;;16.67;7.72;;;15.70;99.90;;;;;;4996697;28;20090;-78
2022/05/11 07:03:41;;;;;;;14.20;7.80;;;15.70;99.90;;;;;;5031698;28;20053;-77
2022/05/11 07:06:07;;;;;;;16.25;7.68;;;15.80;99.90;;;;;;5031773;28;20052;-75
2022/05/11 07:08:35;;;;;;;11.23;6.97;;;15.80;99.90;;;;;;5031107;28;20069;-76
2022/05/11 07:13:45;;;;;;;12.00;6.88;;;15.90;99.90;;;;;;5048212;28;20095;-75
2022/05/11 07:16:11;;;;;;;11.23;6.75;;;16.00;99.90;;;;;;5040789;28;20498;-76
2022/05/11 07:18:37;;;;;;;12.07;6.53;;;16.00;99.90;;;;;;5051325;28;20124;-76
2022/05/11 07:21:03;;;;;;;26.05;7.93;;;16.00;99.90;;;;;;5048584;28;20068;-76
2022/05/11 07:23:30;;;;;;;12.40;6.40;;;16.10;99.90;;;;;;5031297;28;20080;-77
2022/05/11 07:25:56;;;;;;;12.20;7.07;;;16.10;99.90;;;;;;5033818;28;20095;-76
2022/05/11 07:28:22;;;;;;;17.50;6.35;;;16.20;99.90;;;;;;5051989;28;20044;-76
2022/05/11 07:30:48;;;;;;;13.60;6.32;;;16.20;99.90;;;;;;5034197;28;20049;-74
2022/05/11 07:33:15;;;;;;;11.65;5.68;;;16.30;99.90;;;;;;5031327;28;20132;-76
2022/05/11 07:35:43;;;;;;;9.15;6.18;;;16.40;99.90;;;;;;5031550;28;20069;-76
2022/05/11 07:38:11;;;;;;;12.57;6.35;;;16.40;99.90;;;;;;5031658;28;20107;-76
2022/05/11 07:40:36;;;;;;;;;;;16.50;99.90;;;;;;5031272;28;20092;-76
2022/05/11 07:43:03;;;;;;;13.98;5.70;;;16.50;99.90;;;;;;5031630;28;19925;-76
2022/05/11 07:45:36;;;;;;;13.80;5.72;;;16.60;99.90;;;;;;5030886;28;20059;-74
2022/05/11 07:48:01;;;;;;;15.48;5.35;;;16.70;99.90;;;;;;5032946;28;20447;-75
2022/05/11 07:50:27;;;;;;;10.00;5.22;;;16.70;99.90;;;;;;5031509;28;20168;-75
2022/05/11 07:52:54;;;;;;;15.98;6.72;;;16.80;99.90;;;;;;5025349;28;20127;-76
2022/05/11 07:55:20;;;;;;;18.85;6.28;;;16.80;99.90;;;;;;5028224;28;20116;-75
2022/05/11 08:00:31;;;;;;;13.75;5.40;;;17.60;99.90;;;;;;5012239;28;20050;-76
2022/05/11 08:02:57;;;;;;;9.00;5.13;;;17.70;99.90;;;;;;5009684;28;20057;-74
2022/05/11 08:05:23;;;;;;;13.32;5.55;;;17.80;99.90;;;;;;5013362;28;20489;-68
2022/05/11 08:07:53;;;;;;;24.83;6.18;;;17.70;99.90;;;;;;5028316;28;20049;-68
2022/05/11 08:10:37;;;;;;;15.32;5.93;;;17.70;99.90;;;;;;5029189;28;20037;-68
2022/05/11 08:13:07;;;;;;;12.85;4.18;;;17.70;99.90;;;;;;5029908;28;20041;-68
2022/05/11 08:15:36;;;;;;;15.77;5.20;;;17.70;99.90;;;;;;5030898;28;20056;-69
2022/05/11 08:18:04;;;;;;;10.05;5.22;;;17.80;99.90;;;;;;5030139;28;20052;-68
2022/05/11 08:20:34;;;;;;;18.45;5.43;;;18.20;99.90;;;;;;5029343;28;20583;-69
2022/05/11 08:23:02;;;;;;;10.32;5.65;;;18.50;99.90;;;;;;5029404;28;20132;-69
2022/05/11 08:25:29;;;;;;;9.85;4.97;;;18.50;99.90;;;;;;5011860;28;20045;-68
2022/05/11 08:27:56;;;;;;;16.75;4.95;;;18.80;99.90;;;;;;5025025;28;20400;-68
2022/05/11 08:33:22;;;;;;;10.30;4.82;;;19.40;96.30;;;;;;5028630;28;20073;-69
2022/05/11 08:36:09;;;;;;;10.88;4.00;;;19.90;94.20;;;;;;5029149;28;20042;-68
2022/05/11 08:38:39;;;;;;;17.25;5.13;;;20.30;89.90;;;;;;5029663;28;20054;-69
2022/05/11 08:41:19;;;;;;;12.93;4.97;;;20.50;80.10;;;;;;5038980;28;20048;-68
2022/05/11 08:43:47;;;;;;;19.17;4.57;;;20.50;76.50;;;;;;5034782;28;20083;-69
2022/05/11 08:46:38;;;;;;;16.70;4.97;;;20.70;75.30;;;;;;5029490;28;20068;-68
2022/05/11 08:49:37;;;;;;;8.13;4.15;;;20.80;68.50;;;;;;5029457;28;20053;-69
2022/05/11 08:52:05;;;;;;;11.27;4.57;;;20.70;67.40;;;;;;5029542;28;20518;-69
2022/05/11 08:54:44;;;;;;;11.50;4.65;;;20.50;71.60;;;;;;5029823;28;20045;-69
2022/05/11 08:57:17;;;;;;;13.45;4.30;;;20.60;67.40;;;;;;5028039;28;20092;-69
2022/05/11 08:59:44;;;;;;;10.90;3.60;;;20.80;68.10;;;;;;5029460;28;20037;-68
2022/05/11 09:02:18;;;;;;;16.42;4.82;;;20.90;69.60;;;;;;5022813;28;20053;-67
2022/05/11 09:04:56;;;;;;;5.93;3.25;;;21.10;67.60;;;;;;5032917;28;20446;-68
2022/05/11 09:07:22;;;;;;;11.27;3.25;;;21.40;64.30;;;;;;5025324;28;20049;-69
2022/05/11 09:09:50;;;;;;;13.20;3.72;;;21.60;66.30;;;;;;5028143;28;20041;-69
2022/05/11 09:12:16;;;;;;;16.02;3.95;;;21.40;64.90;;;;;;5026168;28;20053;-70
2022/05/11 09:14:49;;;;;;;10.23;3.58;;;21.30;64.40;;;;;;5026675;28;20088;-69
2022/05/11 09:17:32;;;;;;;12.48;4.20;;;21.30;64.60;;;;;;5028258;28;20128;-71
2022/05/11 09:20:12;;;;;;;12.77;3.90;;;21.00;62.50;;;;;;5023093;28;20123;-69
2022/05/11 09:22:59;;;;;;;12.50;4.32;;;20.80;62.50;;;;;;5019258;28;20125;-69
2022/05/11 09:25:29;;;;;;;13.63;3.85;;;20.90;64.10;;;;;;5011750;28;20065;-69
2022/05/11 09:28:19;;;;;;;8.32;3.50;;;21.00;65.80;;;;;;5021146;28;20049;-69
2022/05/11 09:31:10;;;;;;;10.88;4.13;;;21.30;62.70;;;;;;5027369;28;20061;-69
2022/05/11 09:33:41;;;;;;;20.73;4.50;;;21.60;61.30;;;;;;5024846;28;20649;-68
2022/05/11 09:36:09;;;;;;;17.50;4.68;;;21.40;61.00;;;;;;5022391;28;20072;-70
2022/05/11 09:38:37;;;;;;;;;;;21.40;62.60;;;;;;5026811;28;20049;-69
2022/05/11 09:41:18;;;;;;;;;;;21.40;59.70;;;;;;5028177;28;19924;-70
2022/05/11 09:43:56;;;;;;;18.35;4.80;;;21.40;60.10;;;;;;5038059;28;20017;-70
2022/05/11 09:46:33;;;;;;;10.27;3.22;;;21.30;62.50;;;;;;5023701;28;20049;-69
2022/05/11 09:49:13;;;;;;;16.17;4.07;;;21.20;62.00;;;;;;5019965;28;20045;-69
2022/05/11 09:51:38;;;;;;;11.88;4.32;;;21.10;61.90;;;;;;5024270;28;20053;-69
2022/05/11 09:54:19;;;;;;;14.43;4.93;;;21.50;63.20;;;;;;5027260;28;20057;-69
2022/05/11 09:56:52;;;;;;;12.18;4.30;;;21.60;60.90;;;;;;5026429;28;20049;-69
2022/05/11 09:59:34;;;;;;;7.70;3.50;;;21.80;61.20;;;;;;5020390;28;20471;-69
2022/05/11 10:02:26;;;;;;;13.73;4.60;;;22.00;59.80;;;;;;5020115;28;20053;-70
2022/05/11 10:05:07;;;;;;;13.25;3.65;;;22.10;57.80;;;;;;5026880;28;20143;-69
2022/05/11 10:07:56;;;;;;;12.45;4.20;;;22.20;58.00;;;;;;5026430;28;20054;-69
2022/05/11 10:11:02;;;;;;;10.15;3.78;;;22.30;57.60;;;;;;4999734;28;20503;-69
2022/05/11 10:13:31;;;;;;;10.90;3.43;;;21.90;56.50;;;;;;5007035;28;20077;-70
2022/05/11 10:21:50;;;;;;;11.10;3.35;;;21.70;58.70;;;;;;5007607;28;20096;-68
2022/05/11 10:22:00;;;;;;;10.45;3.03;;;21.80;59.20;;;;;;5019379;28;20049;-69
2022/05/11 10:24:43;;;;;;;15.52;3.15;;;21.90;58.80;;;;;;5027485;28;20052;-69
2022/05/11 10:27:17;;;;;;;20.40;4.43;;;21.90;58.90;;;;;;5026578;28;20056;-69
2022/05/11 10:30:08;;;;;;;8.90;4.07;;;21.70;58.00;;;;;;5008789;28;20037;-68
2022/05/11 10:32:46;;;;;;;9.00;3.35;;;21.60;56.80;;;;;;5014516;28;20056;-70
2022/05/11 10:35:20;;;;;;;5.75;2.78;;;21.70;57.40;;;;;;5028188;28;20845;-68
2022/05/11 10:38:16;;;;;;;10.15;2.90;;;21.80;57.50;;;;;;5014862;28;20045;-69
2022/05/11 10:41:09;;;;;;;5.03;2.35;;;21.90;55.90;;;;;;5021892;28;20079;-69
2022/05/11 10:43:59;;;;;;;7.07;2.55;;;21.80;56.20;;;;;;5055915;28;20395;-69
2022/05/11 10:46:37;;;;;;;11.25;3.88;;;21.90;55.80;;;;;;5026539;28;20049;-68
2022/05/11 10:49:34;;;;;;;12.68;2.70;;;21.60;55.40;;;;;;5039921;28;20807;-69
2022/05/11 10:52:15;;;;;;;10.82;2.80;;;21.40;56.40;;;;;;5027174;28;20048;-69
2022/05/11 10:55:03;;;;;;;10.57;3.13;;;21.60;57.10;;;;;;5009969;28;20049;-69
2022/05/11 10:58:10;;;;;;;5.47;2.78;;;21.60;56.90;;;;;;5015660;28;20049;-68
2022/05/11 11:00:43;;;;;;;9.75;3.78;;;21.80;55.70;;;;;;5030720;28;20052;-69
2022/05/11 11:03:12;;;;;;;11.07;4.22;;;21.70;56.80;;;;;;5032655;28;20091;-69
2022/05/11 11:05:43;;;;;;;11.10;4.57;;;21.80;57.30;;;;;;5031919;28;20402;-68
2022/05/11 11:08:33;;;;;;;15.25;4.03;;;22.10;56.60;;;;;;5029079;28;20792;-68
2022/05/11 11:11:20;;;;;;;11.45;3.67;;;22.20;56.20;;;;;;5038870;28;20414;-69
2022/05/11 11:14:00;;;;;;;10.57;3.97;;;22.60;55.40;;;;;;5050404;28;20135;-69
2022/05/11 11:16:32;;;;;;;7.75;2.88;;;22.60;54.20;;;;;;5033613;28;20053;-69
2022/05/11 11:18:58;;;;;;;8.85;3.00;;;22.90;54.20;;;;;;5032750;28;20083;-69
2022/05/11 11:21:25;;;;;;;20.13;3.72;;;22.90;53.60;;;;;;5051064;28;20059;-69
2022/05/11 11:24:24;;;;;;;14.40;3.10;;;23.10;54.00;;;;;;5033835;28;20531;-69
2022/05/11 11:26:53;;;;;;;11.30;3.10;;;23.40;51.60;;;;;;5018757;28;20581;-69
2022/05/11 11:29:59;;;;;;;8.52;3.75;;;23.50;52.20;;;;;;5033384;28;20103;-69
2022/05/11 11:32:25;;;;;;;11.45;3.20;;;23.50;52.70;;;;;;5050836;28;20143;-69
2022/05/11 11:35:23;;;;;;;7.88;2.50;;;23.40;52.70;;;;;;5030364;28;20575;-69
2022/05/11 11:38:00;;;;;;;11.50;2.80;;;23.30;50.90;;;;;;5013291;28;20511;-69
2022/05/11 11:40:28;;;;;;;7.95;2.63;;;23.30;50.30;;;;;;5036242;28;20056;-69
2022/05/11 11:42:54;;;;;;;12.07;3.20;;;23.20;51.80;;;;;;5031501;28;20502;-69
2022/05/11 11:45:27;;;;;;;7.13;2.50;;;23.30;51.80;;;;;;5029246;28;20124;-69
2022/05/11 11:48:23;;;;;;;11.93;3.67;;;23.40;51.50;;;;;;5043797;28;20098;-69
2022/05/11 11:50:50;;;;;;;7.47;2.92;;;23.40;51.80;;;;;;5045831;28;20041;-69
2022/05/11 11:53:38;;;;;;;14.98;3.67;;;23.40;52.20;;;;;;5046838;28;20049;-69
2022/05/11 11:56:23;;;;;;;7.25;2.95;;;23.40;51.60;;;;;;5048453;28;20612;-69
2022/05/11 11:59:03;;;;;;;12.57;3.53;;;23.40;51.50;;;;;;5031746;28;20106;-69
2022/05/11 12:01:32;;;;;;;10.57;3.25;;;23.50;51.00;;;;;;5028710;28;20080;-70
2022/05/11 12:04:05;;;;;;;6.85;3.20;;;23.60;51.50;;;;;;5029864;28;20057;-68
2022/05/11 12:15:02;;;;;;;8.90;4.10;;;23.50;51.70;;;;;;5019473;28;20067;-70
2022/05/11 12:17:36;;;;;;;9.63;3.63;;;23.60;51.80;;;;;;5012614;28;20402;-70
2022/05/11 12:20:11;;;;;;;10.77;3.30;;;23.80;51.90;;;;;;5030411;28;20076;-70
2022/05/11 12:22:41;;;;;;;9.68;3.88;;;23.80;51.10;;;;;;5026527;28;20057;-69
2022/05/11 12:25:21;;;;;;;16.98;3.30;;;23.70;51.30;;;;;;5032449;28;20048;-70
2022/05/11 12:27:48;;;;;;;18.58;3.75;;;23.90;50.70;;;;;;5022030;28;20410;-69
2022/05/11 12:30:29;;;;;;;16.17;4.95;;;23.80;50.90;;;;;;5028628;28;20045;-69
2022/05/11 12:32:59;;;;;;;14.00;3.33;;;23.80;50.40;;;;;;5021578;28;20064;-72
2022/05/11 12:35:24;;;;;;;19.30;5.47;;;23.70;50.70;;;;;;5047665;28;20072;-71
2022/05/11 12:38:03;;;;;;;12.43;2.90;;;23.50;50.50;;;;;;5032019;28;20135;-70
2022/05/11 12:40:32;;;;;;;9.20;3.80;;;23.40;50.40;;;;;;5027480;28;20059;-70
2022/05/11 12:43:05;;;;;;;11.70;2.95;;;23.50;51.20;;;;;;5036255;28;20124;-70
2022/05/11 12:45:40;;;;;;;11.50;3.58;;;23.50;51.60;;;;;;5029406;28;20037;-71
2022/05/11 12:48:06;;;;;;;8.50;3.67;;;23.60;51.10;;;;;;5029544;28;20084;-70
2022/05/11 12:50:36;;;;;;;7.22;2.85;;;23.70;50.30;;;;;;5030079;28;20049;-70
2022/05/11 12:53:19;;;;;;;15.57;3.65;;;23.70;50.40;;;;;;5026293;28;20041;-70
2022/05/11 12:55:50;;;;;;;8.35;3.38;;;23.70;50.30;;;;;;5047775;28;20040;-71
2022/05/11 12:58:23;;;;;;;8.75;3.95;;;23.70;50.10;;;;;;5046683;28;20072;-70
2022/05/11 13:00:57;;;;;;;7.88;3.17;;;23.70;49.20;;;;;;5026302;28;20045;-70
2022/05/11 13:03:27;;;;;;;10.18;3.83;;;23.80;49.60;;;;;;5043794;28;20049;-70
2022/05/11 13:05:58;;;;;;;12.65;4.35;;;24.00;49.60;;;;;;5028010;28;20184;-70
2022/05/11 13:08:25;;;;;;;12.63;4.03;;;24.00;49.60;;;;;;5032146;28;20136;-70
2022/05/11 13:10:51;;;;;;;14.23;3.47;;;23.90;49.50;;;;;;5031107;28;20047;-70
2022/05/11 13:13:27;;;;;;;11.48;3.67;;;23.90;50.00;;;;;;5031151;28;20049;-70
2022/05/11 13:16:06;;;;;;;7.82;4.47;;;24.00;49.50;;;;;;5048654;28;20037;-70
2022/05/11 13:18:34;;;;;;;8.45;3.95;;;23.80;49.90;;;;;;5031491;28;20060;-71
2022/05/11 13:21:01;;;;;;;;;;;23.90;50.60;;;;;;5029612;28;20063;-70
2022/05/11 13:23:59;;;;;;;14.38;4.35;;;24.00;48.60;;;;;;5029175;28;19932;-70
2022/05/11 13:26:31;;;;;;;14.13;4.85;;;24.10;49.30;;;;;;5024256;28;20045;-70
2022/05/11 13:28:59;;;;;;;18.55;4.85;;;23.90;49.70;;;;;;5024449;28;20050;-70
2022/05/11 13:31:33;;;;;;;13.82;4.30;;;23.70;50.40;;;;;;5048151;28;20060;-70